sensor_id;sensor_type;location;lat;lon;timestamp;P1;durP1;ratioP1;P2;durP2;ratioP2
12703;SDS011;6416;52.182;7.650;2023-06-22T00:02:01;5.20;;;4.70;;
12703;SDS011;6416;52.182;7.650;2023-06-22T00:04:26;4.70;;;4.30;;
12703;SDS011;6416;52.182;7.650;2023-06-22T00:06:52;5.20;;;4.57;;
12703;SDS011;6416;52.182;7.650;2023-06-22T00:09:17;5.78;;;4.22;;
12703;SDS011;6416;52.182;7.650;2023-06-22T00:11:43;4.90;;;4.50;;
12703;SDS011;6416;52.182;7.650;2023-06-22T00:14:08;4.63;;;4.22;;
12703;SDS011;6416;52.182;7.650;2023-06-22T00:16:34;4.78;;;4.35;;
12703;SDS011;6416;52.182;7.650;2023-06-22T00:18:59;5.07;;;4.60;;
12703;SDS011;6416;52.182;7.650;2023-06-22T00:21:26;4.80;;;4.30;;
12703;SDS011;6416;52.182;7.650;2023-06-22T00:23:52;4.65;;;4.25;;
12703;SDS011;6416;52.182;7.650;2023-06-22T00:26:17;4.55;;;4.15;;
12703;SDS011;6416;52.182;7.650;2023-06-22T00:28:43;4.57;;;4.18;;
12703;SDS011;6416;52.182;7.650;2023-06-22T00:31:09;4.70;;;4.28;;
12703;SDS011;6416;52.182;7.650;2023-06-22T00:33:34;4.53;;;4.13;;
12703;SDS011;6416;52.182;7.650;2023-06-22T00:36:00;4.75;;;4.30;;
12703;SDS011;6416;52.182;7.650;2023-06-22T00:38:25;4.45;;;4.07;;
12703;SDS011;6416;52.182;7.650;2023-06-22T00:40:51;4.38;;;3.95;;
12703;SDS011;6416;52.182;7.650;2023-06-22T00:43:16;4.68;;;4.20;;
12703;SDS011;6416;52.182;7.650;2023-06-22T00:45:42;5.30;;;4.80;;
12703;SDS011;6416;52.182;7.650;2023-06-22T00:48:07;6.38;;;4.50;;
12703;SDS011;6416;52.182;7.650;2023-06-22T00:50:33;4.75;;;4.00;;
12703;SDS011;6416;52.182;7.650;2023-06-22T00:52:59;4.78;;;4.38;;
12703;SDS011;6416;52.182;7.650;2023-06-22T00:55:30;7.05;;;4.70;;
12703;SDS011;6416;52.182;7.650;2023-06-22T00:57:55;5.03;;;4.53;;
12703;SDS011;6416;52.182;7.650;2023-06-22T01:00:24;4.40;;;4.00;;
12703;SDS011;6416;52.182;7.650;2023-06-22T01:02:50;4.70;;;4.22;;
12703;SDS011;6416;52.182;7.650;2023-06-22T01:05:16;4.47;;;4.07;;
12703;SDS011;6416;52.182;7.650;2023-06-22T01:10:25;4.75;;;4.35;;
12703;SDS011;6416;52.182;7.650;2023-06-22T01:13:02;4.07;;;3.78;;
12703;SDS011;6416;52.182;7.650;2023-06-22T01:15:33;4.13;;;3.83;;
12703;SDS011;6416;52.182;7.650;2023-06-22T01:18:19;3.70;;;3.38;;
12703;SDS011;6416;52.182;7.650;2023-06-22T01:20:47;3.95;;;3.55;;
12703;SDS011;6416;52.182;7.650;2023-06-22T01:26:20;4.18;;;3.78;;
12703;SDS011;6416;52.182;7.650;2023-06-22T01:29:00;4.60;;;4.03;;
12703;SDS011;6416;52.182;7.650;2023-06-22T01:31:28;4.15;;;3.85;;
12703;SDS011;6416;52.182;7.650;2023-06-22T01:33:57;4.55;;;4.15;;
12703;SDS011;6416;52.182;7.650;2023-06-22T01:36:25;7.60;;;4.07;;
12703;SDS011;6416;52.182;7.650;2023-06-22T01:38:51;4.75;;;4.35;;
12703;SDS011;6416;52.182;7.650;2023-06-22T01:41:18;4.93;;;4.18;;
12703;SDS011;6416;52.182;7.650;2023-06-22T01:43:45;4.03;;;3.72;;
12703;SDS011;6416;52.182;7.650;2023-06-22T01:46:11;4.47;;;4.07;;
12703;SDS011;6416;52.182;7.650;2023-06-22T01:48:38;3.90;;;3.55;;
12703;SDS011;6416;52.182;7.650;2023-06-22T01:51:04;3.83;;;3.53;;
12703;SDS011;6416;52.182;7.650;2023-06-22T01:53:29;3.80;;;3.50;;
12703;SDS011;6416;52.182;7.650;2023-06-22T01:55:55;4.05;;;3.75;;
12703;SDS011;6416;52.182;7.650;2023-06-22T01:58:21;5.28;;;4.18;;
12703;SDS011;6416;52.182;7.650;2023-06-22T02:00:52;5.97;;;5.10;;
12703;SDS011;6416;52.182;7.650;2023-06-22T02:03:26;4.38;;;3.97;;
12703;SDS011;6416;52.182;7.650;2023-06-22T02:06:06;4.30;;;3.92;;
12703;SDS011;6416;52.182;7.650;2023-06-22T02:08:42;5.15;;;3.85;;
12703;SDS011;6416;52.182;7.650;2023-06-22T02:11:20;4.40;;;4.00;;
12703;SDS011;6416;52.182;7.650;2023-06-22T02:13:46;4.25;;;3.95;;
12703;SDS011;6416;52.182;7.650;2023-06-22T02:16:12;4.30;;;4.00;;
12703;SDS011;6416;52.182;7.650;2023-06-22T02:18:39;4.35;;;3.95;;
12703;SDS011;6416;52.182;7.650;2023-06-22T02:21:11;4.53;;;4.13;;
12703;SDS011;6416;52.182;7.650;2023-06-22T02:23:36;4.70;;;4.30;;
12703;SDS011;6416;52.182;7.650;2023-06-22T02:26:02;5.60;;;4.30;;
12703;SDS011;6416;52.182;7.650;2023-06-22T02:28:28;5.10;;;4.70;;
12703;SDS011;6416;52.182;7.650;2023-06-22T02:30:54;5.72;;;3.92;;
12703;SDS011;6416;52.182;7.650;2023-06-22T02:33:19;4.82;;;4.35;;
12703;SDS011;6416;52.182;7.650;2023-06-22T02:35:45;4.28;;;3.95;;
12703;SDS011;6416;52.182;7.650;2023-06-22T02:38:10;4.25;;;3.95;;
12703;SDS011;6416;52.182;7.650;2023-06-22T02:40:36;5.47;;;4.97;;
12703;SDS011;6416;52.182;7.650;2023-06-22T02:43:01;4.63;;;4.22;;
12703;SDS011;6416;52.182;7.650;2023-06-22T02:45:27;4.55;;;4.15;;
12703;SDS011;6416;52.182;7.650;2023-06-22T02:47:53;4.85;;;4.35;;
12703;SDS011;6416;52.182;7.650;2023-06-22T02:50:18;6.00;;;4.72;;
12703;SDS011;6416;52.182;7.650;2023-06-22T02:52:44;5.10;;;4.65;;
12703;SDS011;6416;52.182;7.650;2023-06-22T02:55:09;4.75;;;4.30;;
12703;SDS011;6416;52.182;7.650;2023-06-22T02:57:35;5.35;;;4.30;;
12703;SDS011;6416;52.182;7.650;2023-06-22T03:00:02;5.45;;;4.95;;
12703;SDS011;6416;52.182;7.650;2023-06-22T03:02:29;5.07;;;4.57;;
12703;SDS011;6416;52.182;7.650;2023-06-22T03:04:54;4.82;;;4.43;;
12703;SDS011;6416;52.182;7.650;2023-06-22T03:07:20;5.03;;;4.63;;
12703;SDS011;6416;52.182;7.650;2023-06-22T03:09:45;5.82;;;5.13;;
12703;SDS011;6416;52.182;7.650;2023-06-22T03:12:11;10.98;;;4.70;;
12703;SDS011;6416;52.182;7.650;2023-06-22T03:14:36;5.07;;;4.30;;
12703;SDS011;6416;52.182;7.650;2023-06-22T03:17:03;5.00;;;4.60;;
12703;SDS011;6416;52.182;7.650;2023-06-22T03:19:29;4.88;;;4.35;;
12703;SDS011;6416;52.182;7.650;2023-06-22T03:21:55;4.90;;;4.50;;
12703;SDS011;6416;52.182;7.650;2023-06-22T03:24:20;6.20;;;4.85;;
12703;SDS011;6416;52.182;7.650;2023-06-22T03:26:46;4.93;;;4.53;;
12703;SDS011;6416;52.182;7.650;2023-06-22T03:29:11;5.05;;;4.57;;
12703;SDS011;6416;52.182;7.650;2023-06-22T03:31:37;5.88;;;5.18;;
12703;SDS011;6416;52.182;7.650;2023-06-22T03:34:02;5.07;;;4.57;;
12703;SDS011;6416;52.182;7.650;2023-06-22T03:36:28;5.05;;;4.65;;
12703;SDS011;6416;52.182;7.650;2023-06-22T03:38:53;5.57;;;4.80;;
12703;SDS011;6416;52.182;7.650;2023-06-22T03:41:19;5.05;;;4.55;;
12703;SDS011;6416;52.182;7.650;2023-06-22T03:43:44;4.60;;;4.20;;
12703;SDS011;6416;52.182;7.650;2023-06-22T03:46:10;6.15;;;4.65;;
12703;SDS011;6416;52.182;7.650;2023-06-22T03:48:35;4.75;;;4.35;;
12703;SDS011;6416;52.182;7.650;2023-06-22T03:51:01;5.53;;;5.03;;
12703;SDS011;6416;52.182;7.650;2023-06-22T03:53:27;4.88;;;4.47;;
12703;SDS011;6416;52.182;7.650;2023-06-22T03:55:53;4.95;;;4.55;;
12703;SDS011;6416;52.182;7.650;2023-06-22T03:58:19;4.63;;;4.22;;
12703;SDS011;6416;52.182;7.650;2023-06-22T04:00:51;4.60;;;4.20;;
12703;SDS011;6416;52.182;7.650;2023-06-22T04:03:18;5.25;;;4.32;;
12703;SDS011;6416;52.182;7.650;2023-06-22T04:05:44;4.30;;;3.92;;
12703;SDS011;6416;52.182;7.650;2023-06-22T04:08:10;4.50;;;4.13;;
12703;SDS011;6416;52.182;7.650;2023-06-22T04:10:37;4.53;;;4.13;;
12703;SDS011;6416;52.182;7.650;2023-06-22T04:13:02;5.00;;;4.13;;
12703;SDS011;6416;52.182;7.650;2023-06-22T04:15:28;5.03;;;4.55;;
12703;SDS011;6416;52.182;7.650;2023-06-22T04:17:54;5.13;;;4.10;;
12703;SDS011;6416;52.182;7.650;2023-06-22T04:20:20;4.93;;;4.53;;
12703;SDS011;6416;52.182;7.650;2023-06-22T04:22:46;4.03;;;3.63;;
12703;SDS011;6416;52.182;7.650;2023-06-22T04:25:11;4.32;;;4.00;;
12703;SDS011;6416;52.182;7.650;2023-06-22T04:27:37;4.68;;;4.25;;
12703;SDS011;6416;52.182;7.650;2023-06-22T04:30:08;5.13;;;4.00;;
12703;SDS011;6416;52.182;7.650;2023-06-22T04:32:34;3.88;;;3.58;;
12703;SDS011;6416;52.182;7.650;2023-06-22T04:35:00;4.13;;;3.75;;
12703;SDS011;6416;52.182;7.650;2023-06-22T04:37:25;4.40;;;4.00;;
12703;SDS011;6416;52.182;7.650;2023-06-22T04:39:51;4.00;;;3.60;;
12703;SDS011;6416;52.182;7.650;2023-06-22T04:42:16;4.38;;;3.67;;
12703;SDS011;6416;52.182;7.650;2023-06-22T04:44:42;4.40;;;3.67;;
12703;SDS011;6416;52.182;7.650;2023-06-22T04:47:07;5.10;;;4.63;;
12703;SDS011;6416;52.182;7.650;2023-06-22T04:49:33;5.47;;;4.15;;
12703;SDS011;6416;52.182;7.650;2023-06-22T04:52:00;4.32;;;3.92;;
12703;SDS011;6416;52.182;7.650;2023-06-22T04:54:27;4.47;;;3.97;;
12703;SDS011;6416;52.182;7.650;2023-06-22T04:56:52;4.18;;;3.83;;
12703;SDS011;6416;52.182;7.650;2023-06-22T04:59:18;4.53;;;4.13;;
12703;SDS011;6416;52.182;7.650;2023-06-22T05:01:43;5.30;;;4.25;;
12703;SDS011;6416;52.182;7.650;2023-06-22T05:04:09;4.22;;;3.83;;
12703;SDS011;6416;52.182;7.650;2023-06-22T05:06:34;4.25;;;3.95;;
12703;SDS011;6416;52.182;7.650;2023-06-22T05:09:00;4.53;;;4.13;;
12703;SDS011;6416;52.182;7.650;2023-06-22T05:11:26;4.10;;;3.80;;
12703;SDS011;6416;52.182;7.650;2023-06-22T05:13:52;4.75;;;4.20;;
12703;SDS011;6416;52.182;7.650;2023-06-22T05:16:17;3.85;;;3.33;;
12703;SDS011;6416;52.182;7.650;2023-06-22T05:18:43;3.90;;;3.60;;
12703;SDS011;6416;52.182;7.650;2023-06-22T05:21:09;4.75;;;4.28;;
12703;SDS011;6416;52.182;7.650;2023-06-22T05:23:34;4.75;;;4.30;;
12703;SDS011;6416;52.182;7.650;2023-06-22T05:26:00;5.75;;;4.25;;
12703;SDS011;6416;52.182;7.650;2023-06-22T05:28:25;4.80;;;4.40;;
12703;SDS011;6416;52.182;7.650;2023-06-22T05:30:51;5.10;;;3.97;;
12703;SDS011;6416;52.182;7.650;2023-06-22T05:33:16;4.75;;;4.25;;
12703;SDS011;6416;52.182;7.650;2023-06-22T05:35:42;4.18;;;3.88;;
12703;SDS011;6416;52.182;7.650;2023-06-22T05:38:07;4.80;;;4.30;;
12703;SDS011;6416;52.182;7.650;2023-06-22T05:40:33;4.35;;;3.95;;
12703;SDS011;6416;52.182;7.650;2023-06-22T05:42:58;5.35;;;4.47;;
12703;SDS011;6416;52.182;7.650;2023-06-22T05:45:23;5.32;;;4.55;;
12703;SDS011;6416;52.182;7.650;2023-06-22T05:47:49;4.38;;;4.07;;
12703;SDS011;6416;52.182;7.650;2023-06-22T05:50:14;4.13;;;3.83;;
12703;SDS011;6416;52.182;7.650;2023-06-22T05:52:40;4.65;;;4.25;;
12703;SDS011;6416;52.182;7.650;2023-06-22T05:55:05;4.60;;;4.18;;
12703;SDS011;6416;52.182;7.650;2023-06-22T05:57:31;6.00;;;4.32;;
12703;SDS011;6416;52.182;7.650;2023-06-22T05:59:56;4.65;;;4.25;;
12703;SDS011;6416;52.182;7.650;2023-06-22T06:02:22;5.05;;;4.55;;
12703;SDS011;6416;52.182;7.650;2023-06-22T06:04:47;4.90;;;4.50;;
12703;SDS011;6416;52.182;7.650;2023-06-22T06:07:13;4.72;;;4.28;;
12703;SDS011;6416;52.182;7.650;2023-06-22T06:09:38;4.18;;;3.88;;
12703;SDS011;6416;52.182;7.650;2023-06-22T06:12:04;4.65;;;4.25;;
12703;SDS011;6416;52.182;7.650;2023-06-22T06:14:29;4.22;;;3.90;;
12703;SDS011;6416;52.182;7.650;2023-06-22T06:16:55;4.68;;;4.28;;
12703;SDS011;6416;52.182;7.650;2023-06-22T06:19:20;4.25;;;3.90;;
12703;SDS011;6416;52.182;7.650;2023-06-22T06:21:46;4.60;;;4.20;;
12703;SDS011;6416;52.182;7.650;2023-06-22T06:24:11;4.78;;;4.38;;
12703;SDS011;6416;52.182;7.650;2023-06-22T06:26:37;4.32;;;3.95;;
12703;SDS011;6416;52.182;7.650;2023-06-22T06:29:02;4.22;;;3.85;;
12703;SDS011;6416;52.182;7.650;2023-06-22T06:31:28;4.20;;;3.90;;
12703;SDS011;6416;52.182;7.650;2023-06-22T06:33:54;4.05;;;3.75;;
12703;SDS011;6416;52.182;7.650;2023-06-22T06:36:19;3.75;;;3.38;;
12703;SDS011;6416;52.182;7.650;2023-06-22T06:38:45;4.40;;;4.03;;
12703;SDS011;6416;52.182;7.650;2023-06-22T06:41:11;4.80;;;4.40;;
12703;SDS011;6416;52.182;7.650;2023-06-22T06:43:36;4.28;;;3.88;;
12703;SDS011;6416;52.182;7.650;2023-06-22T06:46:02;5.32;;;4.07;;
12703;SDS011;6416;52.182;7.650;2023-06-22T06:48:27;4.63;;;4.22;;
12703;SDS011;6416;52.182;7.650;2023-06-22T06:50:53;4.07;;;3.78;;
12703;SDS011;6416;52.182;7.650;2023-06-22T06:53:18;4.53;;;4.13;;
12703;SDS011;6416;52.182;7.650;2023-06-22T06:55:43;4.95;;;4.47;;
12703;SDS011;6416;52.182;7.650;2023-06-22T06:58:09;4.35;;;4.05;;
12703;SDS011;6416;52.182;7.650;2023-06-22T07:00:34;3.42;;;3.22;;
12703;SDS011;6416;52.182;7.650;2023-06-22T07:03:00;4.35;;;3.95;;
12703;SDS011;6416;52.182;7.650;2023-06-22T07:05:26;4.90;;;4.50;;
12703;SDS011;6416;52.182;7.650;2023-06-22T07:07:51;4.55;;;4.15;;
12703;SDS011;6416;52.182;7.650;2023-06-22T07:10:17;4.30;;;3.78;;
12703;SDS011;6416;52.182;7.650;2023-06-22T07:12:42;6.18;;;4.60;;
12703;SDS011;6416;52.182;7.650;2023-06-22T07:15:08;4.70;;;4.30;;
12703;SDS011;6416;52.182;7.650;2023-06-22T07:17:35;5.30;;;4.80;;
12703;SDS011;6416;52.182;7.650;2023-06-22T07:20:01;4.78;;;4.38;;
12703;SDS011;6416;52.182;7.650;2023-06-22T07:22:27;4.80;;;4.40;;
12703;SDS011;6416;52.182;7.650;2023-06-22T07:24:52;4.40;;;4.00;;
12703;SDS011;6416;52.182;7.650;2023-06-22T07:27:18;4.22;;;3.92;;
12703;SDS011;6416;52.182;7.650;2023-06-22T07:29:43;4.47;;;4.07;;
12703;SDS011;6416;52.182;7.650;2023-06-22T07:32:09;4.85;;;4.45;;
12703;SDS011;6416;52.182;7.650;2023-06-22T07:34:34;5.95;;;5.35;;
12703;SDS011;6416;52.182;7.650;2023-06-22T07:37:00;4.57;;;4.22;;
12703;SDS011;6416;52.182;7.650;2023-06-22T07:39:26;4.43;;;4.13;;
12703;SDS011;6416;52.182;7.650;2023-06-22T07:41:51;4.90;;;4.50;;
12703;SDS011;6416;52.182;7.650;2023-06-22T07:44:17;5.10;;;4.63;;
12703;SDS011;6416;52.182;7.650;2023-06-22T07:46:43;6.82;;;4.70;;
12703;SDS011;6416;52.182;7.650;2023-06-22T07:49:08;5.15;;;4.65;;
12703;SDS011;6416;52.182;7.650;2023-06-22T07:51:34;5.72;;;4.80;;
12703;SDS011;6416;52.182;7.650;2023-06-22T07:53:59;4.80;;;4.43;;
12703;SDS011;6416;52.182;7.650;2023-06-22T07:56:25;4.63;;;4.22;;
12703;SDS011;6416;52.182;7.650;2023-06-22T07:58:50;5.18;;;4.68;;
12703;SDS011;6416;52.182;7.650;2023-06-22T08:01:16;5.35;;;4.85;;
12703;SDS011;6416;52.182;7.650;2023-06-22T08:03:42;5.18;;;4.72;;
12703;SDS011;6416;52.182;7.650;2023-06-22T08:06:09;4.45;;;4.05;;
12703;SDS011;6416;52.182;7.650;2023-06-22T08:08:35;5.07;;;4.57;;
12703;SDS011;6416;52.182;7.650;2023-06-22T08:11:01;5.70;;;5.20;;
12703;SDS011;6416;52.182;7.650;2023-06-22T08:13:26;4.78;;;4.38;;
12703;SDS011;6416;52.182;7.650;2023-06-22T08:15:52;4.88;;;4.38;;
12703;SDS011;6416;52.182;7.650;2023-06-22T08:18:17;5.70;;;4.75;;
12703;SDS011;6416;52.182;7.650;2023-06-22T08:20:43;4.93;;;4.40;;
12703;SDS011;6416;52.182;7.650;2023-06-22T08:23:08;8.18;;;4.90;;
12703;SDS011;6416;52.182;7.650;2023-06-22T08:25:34;4.47;;;4.13;;
12703;SDS011;6416;52.182;7.650;2023-06-22T08:28:00;4.32;;;3.97;;
12703;SDS011;6416;52.182;7.650;2023-06-22T08:30:26;4.63;;;4.22;;
12703;SDS011;6416;52.182;7.650;2023-06-22T08:32:52;4.95;;;4.55;;
12703;SDS011;6416;52.182;7.650;2023-06-22T08:35:17;6.07;;;4.85;;
12703;SDS011;6416;52.182;7.650;2023-06-22T08:37:43;5.53;;;5.05;;
12703;SDS011;6416;52.182;7.650;2023-06-22T08:40:08;5.68;;;5.28;;
12703;SDS011;6416;52.182;7.650;2023-06-22T08:42:35;5.22;;;4.20;;
12703;SDS011;6416;52.182;7.650;2023-06-22T08:45:05;5.40;;;4.90;;
12703;SDS011;6416;52.182;7.650;2023-06-22T08:47:31;5.68;;;5.07;;
12703;SDS011;6416;52.182;7.650;2023-06-22T08:49:57;5.50;;;4.93;;
12703;SDS011;6416;52.182;7.650;2023-06-22T08:52:23;4.28;;;3.88;;
12703;SDS011;6416;52.182;7.650;2023-06-22T08:54:49;5.28;;;4.50;;
12703;SDS011;6416;52.182;7.650;2023-06-22T08:57:14;4.97;;;4.47;;
12703;SDS011;6416;52.182;7.650;2023-06-22T08:59:40;5.07;;;4.57;;
12703;SDS011;6416;52.182;7.650;2023-06-22T09:02:06;5.10;;;4.20;;
12703;SDS011;6416;52.182;7.650;2023-06-22T09:04:31;4.78;;;4.38;;
12703;SDS011;6416;52.182;7.650;2023-06-22T09:06:57;5.70;;;4.85;;
12703;SDS011;6416;52.182;7.650;2023-06-22T09:09:22;6.68;;;4.82;;
12703;SDS011;6416;52.182;7.650;2023-06-22T09:11:48;4.82;;;4.32;;
12703;SDS011;6416;52.182;7.650;2023-06-22T09:14:13;5.45;;;4.95;;
12703;SDS011;6416;52.182;7.650;2023-06-22T09:16:39;4.80;;;4.43;;
12703;SDS011;6416;52.182;7.650;2023-06-22T09:19:04;5.28;;;4.78;;
12703;SDS011;6416;52.182;7.650;2023-06-22T09:21:30;6.63;;;5.20;;
12703;SDS011;6416;52.182;7.650;2023-06-22T09:23:55;5.60;;;4.97;;
12703;SDS011;6416;52.182;7.650;2023-06-22T09:26:21;6.80;;;5.25;;
12703;SDS011;6416;52.182;7.650;2023-06-22T09:28:46;6.40;;;5.50;;
12703;SDS011;6416;52.182;7.650;2023-06-22T09:31:12;6.22;;;5.20;;
12703;SDS011;6416;52.182;7.650;2023-06-22T09:33:37;5.72;;;5.15;;
12703;SDS011;6416;52.182;7.650;2023-06-22T09:36:05;6.03;;;5.28;;
12703;SDS011;6416;52.182;7.650;2023-06-22T09:38:31;8.47;;;7.00;;
12703;SDS011;6416;52.182;7.650;2023-06-22T09:40:56;7.15;;;5.57;;
12703;SDS011;6416;52.182;7.650;2023-06-22T09:43:22;5.57;;;5.03;;
12703;SDS011;6416;52.182;7.650;2023-06-22T09:45:47;5.65;;;5.10;;
12703;SDS011;6416;52.182;7.650;2023-06-22T09:48:13;5.88;;;5.38;;
12703;SDS011;6416;52.182;7.650;2023-06-22T09:50:38;5.70;;;5.20;;
12703;SDS011;6416;52.182;7.650;2023-06-22T09:53:04;7.10;;;5.28;;
12703;SDS011;6416;52.182;7.650;2023-06-22T09:55:29;5.72;;;5.22;;
12703;SDS011;6416;52.182;7.650;2023-06-22T09:57:55;5.88;;;5.18;;
12703;SDS011;6416;52.182;7.650;2023-06-22T10:00:20;5.68;;;5.18;;
12703;SDS011;6416;52.182;7.650;2023-06-22T10:02:45;5.85;;;5.32;;
12703;SDS011;6416;52.182;7.650;2023-06-22T10:05:11;6.47;;;5.85;;
12703;SDS011;6416;52.182;7.650;2023-06-22T10:07:37;5.53;;;4.95;;
12703;SDS011;6416;52.182;7.650;2023-06-22T10:10:02;6.07;;;5.50;;
12703;SDS011;6416;52.182;7.650;2023-06-22T10:12:28;6.20;;;5.60;;
12703;SDS011;6416;52.182;7.650;2023-06-22T10:14:53;7.55;;;5.65;;
12703;SDS011;6416;52.182;7.650;2023-06-22T10:17:19;6.88;;;6.07;;
12703;SDS011;6416;52.182;7.650;2023-06-22T10:19:44;5.97;;;5.53;;
12703;SDS011;6416;52.182;7.650;2023-06-22T10:22:10;6.70;;;5.70;;
12703;SDS011;6416;52.182;7.650;2023-06-22T10:24:35;6.10;;;5.60;;
12703;SDS011;6416;52.182;7.650;2023-06-22T10:27:00;5.65;;;5.18;;
12703;SDS011;6416;52.182;7.650;2023-06-22T10:29:26;5.75;;;5.25;;
12703;SDS011;6416;52.182;7.650;2023-06-22T10:31:51;6.05;;;5.55;;
12703;SDS011;6416;52.182;7.650;2023-06-22T10:34:17;5.72;;;5.22;;
12703;SDS011;6416;52.182;7.650;2023-06-22T10:36:45;5.82;;;5.32;;
12703;SDS011;6416;52.182;7.650;2023-06-22T10:39:11;6.07;;;5.57;;
12703;SDS011;6416;52.182;7.650;2023-06-22T10:41:37;6.28;;;5.72;;
12703;SDS011;6416;52.182;7.650;2023-06-22T10:44:02;7.05;;;5.57;;
12703;SDS011;6416;52.182;7.650;2023-06-22T10:46:28;6.15;;;5.60;;
12703;SDS011;6416;52.182;7.650;2023-06-22T10:48:53;9.10;;;5.22;;
12703;SDS011;6416;52.182;7.650;2023-06-22T10:51:19;5.95;;;4.97;;
12703;SDS011;6416;52.182;7.650;2023-06-22T10:53:44;5.55;;;5.15;;
12703;SDS011;6416;52.182;7.650;2023-06-22T10:56:10;9.25;;;5.60;;
12703;SDS011;6416;52.182;7.650;2023-06-22T10:58:35;5.20;;;4.70;;
12703;SDS011;6416;52.182;7.650;2023-06-22T11:01:01;4.75;;;4.45;;
12703;SDS011;6416;52.182;7.650;2023-06-22T11:03:26;5.72;;;5.07;;
12703;SDS011;6416;52.182;7.650;2023-06-22T11:05:52;6.22;;;5.65;;
12703;SDS011;6416;52.182;7.650;2023-06-22T11:08:17;6.22;;;5.57;;
12703;SDS011;6416;52.182;7.650;2023-06-22T11:10:43;6.18;;;5.63;;
12703;SDS011;6416;52.182;7.650;2023-06-22T11:13:09;6.50;;;5.90;;
12703;SDS011;6416;52.182;7.650;2023-06-22T11:15:34;5.90;;;5.50;;
12703;SDS011;6416;52.182;7.650;2023-06-22T11:17:59;6.20;;;5.60;;
12703;SDS011;6416;52.182;7.650;2023-06-22T11:20:25;6.03;;;5.53;;
12703;SDS011;6416;52.182;7.650;2023-06-22T11:22:50;5.90;;;5.40;;
12703;SDS011;6416;52.182;7.650;2023-06-22T11:25:16;6.60;;;6.00;;
12703;SDS011;6416;52.182;7.650;2023-06-22T11:27:41;6.03;;;5.43;;
12703;SDS011;6416;52.182;7.650;2023-06-22T11:30:07;6.07;;;5.57;;
12703;SDS011;6416;52.182;7.650;2023-06-22T11:32:33;5.25;;;4.82;;
12703;SDS011;6416;52.182;7.650;2023-06-22T11:34:59;5.68;;;5.13;;
12703;SDS011;6416;52.182;7.650;2023-06-22T11:37:24;6.00;;;5.47;;
12703;SDS011;6416;52.182;7.650;2023-06-22T11:39:50;5.55;;;5.05;;
12703;SDS011;6416;52.182;7.650;2023-06-22T11:42:15;5.72;;;5.22;;
12703;SDS011;6416;52.182;7.650;2023-06-22T11:44:41;5.68;;;5.18;;
12703;SDS011;6416;52.182;7.650;2023-06-22T11:47:07;5.63;;;5.13;;
12703;SDS011;6416;52.182;7.650;2023-06-22T11:49:32;5.07;;;4.68;;
12703;SDS011;6416;52.182;7.650;2023-06-22T11:51:58;5.78;;;4.10;;
12703;SDS011;6416;52.182;7.650;2023-06-22T11:54:24;5.50;;;5.00;;
12703;SDS011;6416;52.182;7.650;2023-06-22T11:56:49;10.43;;;4.75;;
12703;SDS011;6416;52.182;7.650;2023-06-22T11:59:15;5.00;;;4.50;;
12703;SDS011;6416;52.182;7.650;2023-06-22T12:01:40;6.47;;;5.87;;
12703;SDS011;6416;52.182;7.650;2023-06-22T12:04:05;5.82;;;5.32;;
12703;SDS011;6416;52.182;7.650;2023-06-22T12:06:31;5.57;;;5.18;;
12703;SDS011;6416;52.182;7.650;2023-06-22T12:08:58;5.65;;;5.25;;
12703;SDS011;6416;52.182;7.650;2023-06-22T12:11:23;5.82;;;5.20;;
12703;SDS011;6416;52.182;7.650;2023-06-22T12:13:49;5.90;;;5.40;;
12703;SDS011;6416;52.182;7.650;2023-06-22T12:16:14;5.32;;;4.93;;
12703;SDS011;6416;52.182;7.650;2023-06-22T12:18:40;4.90;;;4.50;;
12703;SDS011;6416;52.182;7.650;2023-06-22T12:21:05;4.85;;;4.45;;
12703;SDS011;6416;52.182;7.650;2023-06-22T12:23:32;5.47;;;5.07;;
12703;SDS011;6416;52.182;7.650;2023-06-22T12:25:57;5.40;;;4.90;;
12703;SDS011;6416;52.182;7.650;2023-06-22T12:28:23;6.00;;;5.50;;
12703;SDS011;6416;52.182;7.650;2023-06-22T12:30:48;5.57;;;5.18;;
12703;SDS011;6416;52.182;7.650;2023-06-22T12:33:14;5.80;;;5.30;;
12703;SDS011;6416;52.182;7.650;2023-06-22T12:35:39;5.30;;;4.80;;
12703;SDS011;6416;52.182;7.650;2023-06-22T12:38:05;5.32;;;4.93;;
12703;SDS011;6416;52.182;7.650;2023-06-22T12:40:30;6.22;;;5.63;;
12703;SDS011;6416;52.182;7.650;2023-06-22T12:42:56;5.53;;;5.13;;
12703;SDS011;6416;52.182;7.650;2023-06-22T12:45:21;6.22;;;5.72;;
12703;SDS011;6416;52.182;7.650;2023-06-22T12:47:47;5.60;;;5.10;;
12703;SDS011;6416;52.182;7.650;2023-06-22T12:50:12;5.95;;;5.18;;
12703;SDS011;6416;52.182;7.650;2023-06-22T12:52:39;5.47;;;4.95;;
12703;SDS011;6416;52.182;7.650;2023-06-22T12:55:04;5.82;;;5.35;;
12703;SDS011;6416;52.182;7.650;2023-06-22T12:57:30;6.15;;;5.57;;
12703;SDS011;6416;52.182;7.650;2023-06-22T12:59:56;5.88;;;5.38;;
12703;SDS011;6416;52.182;7.650;2023-06-22T13:02:21;6.00;;;5.50;;
12703;SDS011;6416;52.182;7.650;2023-06-22T13:04:47;6.03;;;5.50;;
12703;SDS011;6416;52.182;7.650;2023-06-22T13:07:12;6.38;;;5.80;;
12703;SDS011;6416;52.182;7.650;2023-06-22T13:09:38;5.80;;;5.30;;
12703;SDS011;6416;52.182;7.650;2023-06-22T13:12:03;6.60;;;5.97;;
12703;SDS011;6416;52.182;7.650;2023-06-22T13:14:30;5.90;;;5.45;;
12703;SDS011;6416;52.182;7.650;2023-06-22T13:16:55;5.65;;;5.15;;
12703;SDS011;6416;52.182;7.650;2023-06-22T13:19:21;6.40;;;5.88;;
12703;SDS011;6416;52.182;7.650;2023-06-22T13:21:46;5.68;;;5.18;;
12703;SDS011;6416;52.182;7.650;2023-06-22T13:24:12;5.65;;;5.15;;
12703;SDS011;6416;52.182;7.650;2023-06-22T13:26:37;6.38;;;5.78;;
12703;SDS011;6416;52.182;7.650;2023-06-22T13:29:04;6.88;;;5.53;;
12703;SDS011;6416;52.182;7.650;2023-06-22T13:31:29;7.15;;;6.40;;
12703;SDS011;6416;52.182;7.650;2023-06-22T13:33:55;6.50;;;6.00;;
12703;SDS011;6416;52.182;7.650;2023-06-22T13:36:20;6.25;;;5.75;;
12703;SDS011;6416;52.182;7.650;2023-06-22T13:38:45;6.53;;;5.93;;
12703;SDS011;6416;52.182;7.650;2023-06-22T13:41:11;7.43;;;6.65;;
12703;SDS011;6416;52.182;7.650;2023-06-22T13:43:36;6.63;;;6.05;;
12703;SDS011;6416;52.182;7.650;2023-06-22T13:46:02;8.82;;;7.97;;
12703;SDS011;6416;52.182;7.650;2023-06-22T13:48:27;8.07;;;6.53;;
12703;SDS011;6416;52.182;7.650;2023-06-22T13:50:53;7.57;;;6.10;;
12703;SDS011;6416;52.182;7.650;2023-06-22T13:53:19;7.32;;;6.53;;
12703;SDS011;6416;52.182;7.650;2023-06-22T13:55:44;10.93;;;6.43;;
12703;SDS011;6416;52.182;7.650;2023-06-22T13:58:10;6.88;;;6.28;;
12703;SDS011;6416;52.182;7.650;2023-06-22T14:00:35;6.80;;;6.07;;
12703;SDS011;6416;52.182;7.650;2023-06-22T14:03:01;6.90;;;6.40;;
12703;SDS011;6416;52.182;7.650;2023-06-22T14:05:26;7.38;;;6.60;;
12703;SDS011;6416;52.182;7.650;2023-06-22T14:07:52;8.15;;;6.45;;
12703;SDS011;6416;52.182;7.650;2023-06-22T14:10:17;7.93;;;7.10;;
12703;SDS011;6416;52.182;7.650;2023-06-22T14:12:42;7.30;;;6.70;;
12703;SDS011;6416;52.182;7.650;2023-06-22T14:15:08;7.57;;;7.03;;
12703;SDS011;6416;52.182;7.650;2023-06-22T14:17:34;7.63;;;6.95;;
12703;SDS011;6416;52.182;7.650;2023-06-22T14:19:59;7.97;;;7.18;;
12703;SDS011;6416;52.182;7.650;2023-06-22T14:22:25;7.95;;;7.28;;
12703;SDS011;6416;52.182;7.650;2023-06-22T14:24:50;7.90;;;7.07;;
12703;SDS011;6416;52.182;7.650;2023-06-22T14:27:16;8.50;;;6.90;;
12703;SDS011;6416;52.182;7.650;2023-06-22T14:29:41;9.85;;;7.72;;
12703;SDS011;6416;52.182;7.650;2023-06-22T14:32:07;8.73;;;7.60;;
12703;SDS011;6416;52.182;7.650;2023-06-22T14:34:34;7.43;;;6.63;;
12703;SDS011;6416;52.182;7.650;2023-06-22T14:37:00;7.60;;;6.90;;
12703;SDS011;6416;52.182;7.650;2023-06-22T14:39:25;8.15;;;7.13;;
12703;SDS011;6416;52.182;7.650;2023-06-22T14:41:51;7.07;;;6.38;;
12703;SDS011;6416;52.182;7.650;2023-06-22T14:44:16;7.10;;;6.40;;
12703;SDS011;6416;52.182;7.650;2023-06-22T14:46:42;7.18;;;6.50;;
12703;SDS011;6416;52.182;7.650;2023-06-22T14:49:07;6.45;;;5.85;;
12703;SDS011;6416;52.182;7.650;2023-06-22T14:51:33;6.75;;;6.15;;
12703;SDS011;6416;52.182;7.650;2023-06-22T14:53:58;6.20;;;5.70;;
12703;SDS011;6416;52.182;7.650;2023-06-22T14:56:24;5.68;;;5.22;;
12703;SDS011;6416;52.182;7.650;2023-06-22T14:58:49;6.38;;;5.88;;